Dansville, New York
Current Conditions -  °F | °C
As of 3:54 AM on Monday 22 Dec 2014 (Local Time) from KDSV Reporting Station
Clear Clear  
Wind Chill: 26°   Ceiling: Unl
Heat Index: 26°   Visibility: 10mi
Dew Point: 20°   Wind: 3mph
Humidity: 78%   Direction: 160°SSE
Pressure: 30.24"   Gusts: NA
Location:  42.56°N, 77.7°W
Report Text: KDSV 220854Z AUTO 16003KT 10SM CLR M03/M07 A3024 RMK AO2 SLP258 T10331067 58015
Loading
Personal Weather Stations






























Interactive Weather Map New forecast layout! Learn more

10-Day Weather Forecast

Advertisements
Track Severe Weather on mobile